01:39 Rennrad Innsbruck ARZ - Radweg - Voels - Hatting - Pettnau - Haiming - Apfelstr - Moetz
Ort Innsbruck Datum 08.09.2017 16:27:12
Kategorie Rennrad
Distanz 55,07 Kilometer Steigung 196,0 Meter Gefälle -142,0 Meter
Gesamt Zeit 01:40:42 Aktiv 01:38:32 Pause 00:02:10
Durchs. Tempo 33,5 km/h Tempo max. 49,7 km/h Tempo min. 18,7 km/h
Kalorien 0 Durchs. HF 120 BPM HF max. 137 BPM
Wetter 22 °C Clear Min/Max: 21,3 °C/22,5 °C; Druck: 998,2 mbar; Rel. Feuchte: 65,4%; Taupunkt: 15,0 °C; Windgeschwindigkeit: 1,3 km/h; Niederschlag: 0,0mm
Ausrüstung Bontrager - RL Road
Scott - Addict 20
Shimano - CN-HG601-11
Notiz Innsbruck ARZ - Radweg - Voels - Hatting - Pettnau - Haiming - Apfelstr - Moetz ... trocken, feines Radlwetter, leichter bis mittlerer Rueckenwind bis Haiming, Rest Gegenwind - locker ... garmin connect
Splits
Distanz (km) Gesamt Zeit Split Zeit Split Tempo Split Tempo Höhenprofil (m)
1,00 00:01:58 00:01:58 00:01:58 30,4 -3,55
2,00 00:04:07 00:02:09 00:02:09 27,8 -3,95
3,00 00:05:55 00:01:47 00:01:48 33,4 2,20
4,00 00:07:41 00:01:46 00:01:46 34,0 1,72
5,00 00:09:25 00:01:43 00:01:44 34,8 3,50
6,00 00:11:30 00:02:04 00:02:05 28,8 10,12
7,00 00:13:13 00:01:43 00:01:43 34,9 -4,50
8,00 00:14:58 00:01:44 00:01:45 34,3 1,36
9,00 00:16:36 00:01:38 00:01:39 36,4 3,42
10,00 00:18:40 00:02:03 00:02:03 29,2 15,40
11,00 00:20:49 00:02:09 00:02:09 27,9 11,73
12,00 00:22:17 00:01:28 00:01:28 40,9 -17,38
13,00 00:23:47 00:01:30 00:01:30 39,9 -6,64
14,00 00:25:43 00:01:55 00:01:55 31,3 5,75
15,00 00:27:24 00:01:41 00:01:41 35,5 0,60
16,00 00:29:10 00:01:45 00:01:46 34,0 1,06
17,00 00:31:01 00:01:50 00:01:51 32,5 5,48
18,00 00:33:06 00:02:05 00:02:05 28,7 13,63
19,00 00:34:44 00:01:37 00:01:38 36,9 -7,79
20,00 00:36:13 00:01:29 00:01:30 40,1 -6,59
21,00 00:38:10 00:01:56 00:01:57 30,8 3,51
22,00 00:39:47 00:01:37 00:01:37 37,1 0,92
23,00 00:41:23 00:01:35 00:01:35 37,7 0,00
24,00 00:42:59 00:01:35 00:01:36 37,5 8,29
25,00 00:44:33 00:01:34 00:01:34 38,1 -3,30
26,00 00:46:13 00:01:39 00:01:40 36,0 3,35
27,00 00:47:54 00:01:40 00:01:40 35,8 1,07
28,00 00:49:37 00:01:43 00:01:44 34,8 -0,46
29,00 00:51:23 00:01:46 00:01:46 33,9 6,60
30,00 00:53:35 00:02:11 00:02:12 27,3 -2,18
31,00 00:55:15 00:01:39 00:01:39 36,3 0,71
32,00 00:56:51 00:01:36 00:01:37 37,3 2,59
33,00 00:58:37 00:01:46 00:01:46 33,9 7,43
34,00 01:00:21 00:01:43 00:01:43 34,9 1,09
35,00 01:02:00 00:01:39 00:01:40 36,1 1,70
36,00 01:03:43 00:01:42 00:01:43 35,0 -1,65
37,00 01:05:27 00:01:43 00:01:43 34,8 3,40
38,00 01:07:12 00:01:45 00:01:46 34,0 1,35
39,00 01:08:59 00:01:47 00:01:47 33,6 -0,03
40,00 01:10:49 00:01:49 00:01:50 32,8 3,66
41,00 01:12:35 00:01:45 00:01:46 34,1 7,52
42,00 01:14:29 00:01:54 00:01:54 31,5 9,26
43,00 01:16:24 00:01:55 00:01:56 31,1 5,39
44,00 01:18:09 00:01:44 00:01:45 34,4 5,05
45,00 01:19:55 00:01:45 00:01:46 34,0 1,42
46,00 01:21:44 00:01:48 00:01:49 33,1 7,21
47,00 01:23:30 00:01:45 00:01:46 34,1 -10,18
48,00 01:25:11 00:01:40 00:01:41 35,7 -9,33
49,00 01:27:04 00:01:53 00:01:53 31,8 -0,14
50,00 01:28:51 00:01:46 00:01:47 33,7 -3,45
51,00 01:30:38 00:01:47 00:01:48 33,4 1,69
52,00 01:32:29 00:01:50 00:01:51 32,5 -2,55
53,00 01:34:19 00:01:49 00:01:50 32,8 -3,39
54,00 01:36:11 00:01:52 00:01:52 32,1 -3,96
55,00 01:38:13 00:02:01 00:02:01 29,7 2,10
55,10 01:38:32 00:00:18 00:03:09 19,0 -0,37